»·PEaware :: PH-TIM KCMA-KSNA

PH-TIM :: KCMA-KSNA

FLIGHT INFORMATION

Flight Status: Arrived
Operator: Privately registered:
Netherlands
More flights under this callsign
Pilot: Tim P. (6337)
Aircraft: CESSNA 172 SKYHAWK
(C172)
More flights by this aircraft type
Origin: KCMA Camarillo
United States
Destination: KSNA John Wayne-Orange Co
United States
More flights between these airports :: More routes between these airports
Route: +VTU044 GINNA V326 VNY V186 BAYJY V363 POXKU V8 SLI
File this flight plan on PilotEdge
Remarks:
Altitude:
(Current/Filed)
5,000ft
Speed:
(Current/Filed)
0kts
Departed: 28-Jul-18 11:25 AM
Arrived: 28-Jul-18 12:28 PM
Distance/Time
Traveled:
69nm/1:03
Distance/Time
To Go:
Arrived

Flight Plot

Page will automatically refresh every two minutes.


Map Options




Map Legend


Flown Route
Filed Route
Departure Airport
Arrival Airport
Navaid (VOR, NDB)
Fix

Horizontal Profiles

Position Reports

Time Latitude Longitude Heading Altitude Ground
Speed
28-Jul-18 11:12 34.210215 -119.078411 88 81ft 0kts
28-Jul-18 11:13 34.210215 -119.078411 88 81ft 0kts
28-Jul-18 11:14 34.210215 -119.078411 88 81ft 0kts
28-Jul-18 11:15 34.210215 -119.078411 88 81ft 0kts
28-Jul-18 11:16 34.210215 -119.078411 88 81ft 0kts
28-Jul-18 11:17 34.210215 -119.078411 88 81ft 0kts
28-Jul-18 11:18 34.210215 -119.078411 88 81ft 0kts
28-Jul-18 11:19 34.210215 -119.078411 88 81ft 0kts
28-Jul-18 11:20 34.210970 -119.077956 39 81ft 7kts
28-Jul-18 11:21 34.211270 -119.082040 271 81ft 12kts
28-Jul-18 11:22 34.212650 -119.084048 305 81ft 0kts
28-Jul-18 11:23 34.212649 -119.084048 305 81ft 0kts
28-Jul-18 11:24 34.212649 -119.084048 305 81ft 0kts
28-Jul-18 11:25 34.212687 -119.084115 303 81ft 4kts
28-Jul-18 11:26 34.213760 -119.093340 275 136ft 75kts
28-Jul-18 11:27 34.214302 -119.118704 274 609ft 88kts
28-Jul-18 11:28 34.219496 -119.148312 285 1201ft 94kts
28-Jul-18 11:29 34.225519 -119.180379 288 1714ft 100kts
28-Jul-18 11:30 34.231869 -119.213277 287 2220ft 100kts
28-Jul-18 11:31 34.246821 -119.231148 38 2704ft 87kts
28-Jul-18 11:32 34.248564 -119.202591 89 3197ft 85kts
28-Jul-18 11:33 34.247151 -119.175373 89 3675ft 80kts
28-Jul-18 11:34 34.245528 -119.148798 90 4172ft 78kts
28-Jul-18 11:35 34.244199 -119.125017 91 4627ft 76kts
28-Jul-18 11:36 34.242625 -119.099407 87 5011ft 84kts
28-Jul-18 11:37 34.241573 -119.072760 89 5063ft 104kts
28-Jul-18 11:38 34.240906 -119.037996 86 5053ft 100kts
28-Jul-18 11:39 34.240412 -119.004682 87 5055ft 99kts
28-Jul-18 11:40 34.239952 -118.971370 88 5059ft 98kts
28-Jul-18 11:41 34.239122 -118.938139 88 5064ft 98kts
28-Jul-18 11:42 34.238012 -118.904968 88 5063ft 99kts
28-Jul-18 11:43 34.236889 -118.871683 88 5069ft 98kts
28-Jul-18 11:44 34.235741 -118.837917 88 5004ft 103kts
28-Jul-18 11:45 34.234523 -118.802866 89 4913ft 104kts
28-Jul-18 11:46 34.233303 -118.767576 89 4816ft 105kts
28-Jul-18 11:47 34.232099 -118.733186 88 4839ft 97kts
28-Jul-18 11:48 34.231023 -118.701441 89 4927ft 92kts
28-Jul-18 11:49 34.229961 -118.670828 87 4992ft 92kts
28-Jul-18 11:50 34.228827 -118.639048 89 5005ft 95kts
28-Jul-18 11:51 34.227650 -118.606577 89 5010ft 97kts
28-Jul-18 11:52 34.226455 -118.573675 88 5015ft 98kts
28-Jul-18 11:53 34.225244 -118.540481 88 5011ft 99kts
28-Jul-18 11:54 34.224024 -118.507268 89 5014ft 99kts
28-Jul-18 11:55 34.217864 -118.475030 107 5017ft 100kts
28-Jul-18 11:56 34.208651 -118.443036 104 5016ft 100kts
28-Jul-18 11:57 34.201516 -118.419115 108 5015ft 100kts
28-Jul-18 11:58 34.191967 -118.387578 108 5009ft 100kts
28-Jul-18 11:59 34.182167 -118.355250 108 5005ft 104kts
28-Jul-18 12:00 34.173190 -118.325736 109 5010ft 105kts
28-Jul-18 12:01 34.163077 -118.292547 109 5011ft 105kts
28-Jul-18 12:02 34.152909 -118.259186 109 5012ft 106kts
28-Jul-18 12:03 34.142715 -118.225763 109 5013ft 106kts
28-Jul-18 12:04 34.132480 -118.192245 109 5014ft 106kts
28-Jul-18 12:05 34.122263 -118.158842 109 5015ft 106kts
28-Jul-18 12:06 34.112057 -118.125514 109 5016ft 106kts
28-Jul-18 12:07 34.103522 -118.097652 109 5017ft 106kts
28-Jul-18 12:08 34.093253 -118.064170 109 5018ft 106kts
28-Jul-18 12:09 34.081265 -118.025127 109 5020ft 106kts
28-Jul-18 12:10 34.070988 -117.991696 109 5021ft 106kts
28-Jul-18 12:11 34.062383 -117.963732 109 5023ft 106kts
28-Jul-18 12:12 34.052075 -117.930271 109 5025ft 106kts
28-Jul-18 12:13 34.041791 -117.896908 112 5021ft 107kts
28-Jul-18 12:14 34.031354 -117.863108 112 5020ft 108kts
28-Jul-18 12:15 34.020823 -117.829043 111 5022ft 108kts
28-Jul-18 12:16 34.010290 -117.795010 111 5024ft 108kts
28-Jul-18 12:17 33.982801 -117.785159 181 4604ft 116kts
28-Jul-18 12:18 33.949749 -117.784456 180 4115ft 120kts
28-Jul-18 12:19 33.920433 -117.770801 155 4016ft 108kts
28-Jul-18 12:20 33.893730 -117.756604 168 3996ft 111kts
28-Jul-18 12:21 33.860960 -117.760999 188 3521ft 124kts
28-Jul-18 12:22 33.829958 -117.773328 218 3001ft 119kts
28-Jul-18 12:23 33.802040 -117.790993 209 2747ft 105kts
28-Jul-18 12:24 33.776185 -117.806345 206 2179ft 102kts
28-Jul-18 12:25 33.751262 -117.820891 210 1711ft 98kts
28-Jul-18 12:26 33.727166 -117.836149 207 1193ft 99kts
28-Jul-18 12:27 33.703643 -117.851339 203 625ft 84kts
28-Jul-18 12:28 33.686045 -117.862264 206 178ft 55kts
28-Jul-18 12:29 33.673727 -117.870072 207 60ft 38kts
28-Jul-18 12:30 33.667557 -117.873084 118 60ft 12kts
28-Jul-18 12:31 33.667472 -117.872928 132 60ft 0kts
28-Jul-18 12:32 33.666054 -117.873329 39 60ft 0kts
28-Jul-18 12:33 33.666053 -117.873330 39 60ft 0kts

Navigation Log

Ident Type
Flight plan parsing failed, navigation log unavailable